sensor_id;sensor_type;location;lat;lon;timestamp;P1;durP1;ratioP1;P2;durP2;ratioP2
26838;SDS011;40088;51.214;6.786;2023-12-14T00:05:10;25.90;;;20.23;;
26838;SDS011;40088;51.214;6.786;2023-12-14T00:15:11;30.42;;;24.10;;
26838;SDS011;40088;51.214;6.786;2023-12-14T00:25:11;32.05;;;23.13;;
26838;SDS011;40088;51.214;6.786;2023-12-14T00:35:12;34.38;;;25.15;;
26838;SDS011;40088;51.214;6.786;2023-12-14T00:45:12;30.50;;;24.23;;
26838;SDS011;40088;51.214;6.786;2023-12-14T00:55:12;28.33;;;20.75;;
26838;SDS011;40088;51.214;6.786;2023-12-14T01:05:13;31.70;;;24.35;;
26838;SDS011;40088;51.214;6.786;2023-12-14T01:15:13;26.05;;;20.70;;
26838;SDS011;40088;51.214;6.786;2023-12-14T01:25:13;28.85;;;22.38;;
26838;SDS011;40088;51.214;6.786;2023-12-14T01:35:14;28.63;;;21.92;;
26838;SDS011;40088;51.214;6.786;2023-12-14T01:45:14;27.90;;;20.55;;
26838;SDS011;40088;51.214;6.786;2023-12-14T01:55:16;27.35;;;21.02;;
26838;SDS011;40088;51.214;6.786;2023-12-14T02:05:16;37.25;;;29.08;;
26838;SDS011;40088;51.214;6.786;2023-12-14T02:15:16;29.38;;;22.42;;
26838;SDS011;40088;51.214;6.786;2023-12-14T02:25:18;21.45;;;15.90;;
26838;SDS011;40088;51.214;6.786;2023-12-14T02:35:19;28.90;;;22.05;;
26838;SDS011;40088;51.214;6.786;2023-12-14T02:45:19;23.00;;;18.00;;
26838;SDS011;40088;51.214;6.786;2023-12-14T02:55:20;21.70;;;17.17;;
26838;SDS011;40088;51.214;6.786;2023-12-14T03:05:20;24.77;;;19.50;;
26838;SDS011;40088;51.214;6.786;2023-12-14T03:15:20;22.23;;;16.98;;
26838;SDS011;40088;51.214;6.786;2023-12-14T03:25:22;23.67;;;19.23;;
26838;SDS011;40088;51.214;6.786;2023-12-14T03:35:22;19.10;;;15.43;;
26838;SDS011;40088;51.214;6.786;2023-12-14T03:45:22;16.75;;;13.85;;
26838;SDS011;40088;51.214;6.786;2023-12-14T03:55:23;23.00;;;19.20;;
26838;SDS011;40088;51.214;6.786;2023-12-14T04:05:23;21.73;;;17.60;;
26838;SDS011;40088;51.214;6.786;2023-12-14T04:15:23;24.05;;;20.20;;
26838;SDS011;40088;51.214;6.786;2023-12-14T04:25:24;23.80;;;19.27;;
26838;SDS011;40088;51.214;6.786;2023-12-14T04:35:25;22.08;;;17.38;;
26838;SDS011;40088;51.214;6.786;2023-12-14T04:45:25;20.23;;;15.93;;
26838;SDS011;40088;51.214;6.786;2023-12-14T04:55:26;19.98;;;15.13;;
26838;SDS011;40088;51.214;6.786;2023-12-14T05:05:26;19.27;;;15.88;;
26838;SDS011;40088;51.214;6.786;2023-12-14T05:15:26;22.80;;;17.27;;
26838;SDS011;40088;51.214;6.786;2023-12-14T05:25:27;27.40;;;20.98;;
26838;SDS011;40088;51.214;6.786;2023-12-14T05:35:27;24.20;;;17.95;;
26838;SDS011;40088;51.214;6.786;2023-12-14T05:45:27;29.45;;;22.65;;
26838;SDS011;40088;51.214;6.786;2023-12-14T05:55:28;27.10;;;20.63;;
26838;SDS011;40088;51.214;6.786;2023-12-14T06:05:28;24.00;;;18.42;;
26838;SDS011;40088;51.214;6.786;2023-12-14T06:15:29;30.50;;;21.83;;
26838;SDS011;40088;51.214;6.786;2023-12-14T06:25:29;32.22;;;20.33;;
26838;SDS011;40088;51.214;6.786;2023-12-14T06:35:29;24.25;;;19.08;;
26838;SDS011;40088;51.214;6.786;2023-12-14T06:45:29;23.90;;;18.90;;
26838;SDS011;40088;51.214;6.786;2023-12-14T06:55:30;33.33;;;24.85;;
26838;SDS011;40088;51.214;6.786;2023-12-14T07:05:30;31.73;;;22.23;;
26838;SDS011;40088;51.214;6.786;2023-12-14T07:15:32;40.83;;;25.20;;
26838;SDS011;40088;51.214;6.786;2023-12-14T07:25:32;35.65;;;21.90;;
26838;SDS011;40088;51.214;6.786;2023-12-14T07:35:32;35.35;;;24.08;;
26838;SDS011;40088;51.214;6.786;2023-12-14T07:45:33;30.48;;;21.38;;
26838;SDS011;40088;51.214;6.786;2023-12-14T07:55:33;33.15;;;24.15;;
26838;SDS011;40088;51.214;6.786;2023-12-14T08:05:33;34.22;;;23.98;;
26838;SDS011;40088;51.214;6.786;2023-12-14T08:15:33;38.30;;;23.95;;
26838;SDS011;40088;51.214;6.786;2023-12-14T08:25:34;40.13;;;27.65;;
26838;SDS011;40088;51.214;6.786;2023-12-14T08:35:34;42.88;;;28.48;;
26838;SDS011;40088;51.214;6.786;2023-12-14T08:45:34;41.85;;;27.65;;
26838;SDS011;40088;51.214;6.786;2023-12-14T08:55:35;42.85;;;29.15;;
26838;SDS011;40088;51.214;6.786;2023-12-14T09:05:35;41.50;;;27.98;;
26838;SDS011;40088;51.214;6.786;2023-12-14T09:15:37;42.70;;;28.60;;
26838;SDS011;40088;51.214;6.786;2023-12-14T09:25:38;42.15;;;28.55;;
26838;SDS011;40088;51.214;6.786;2023-12-14T09:35:38;37.85;;;26.98;;
26838;SDS011;40088;51.214;6.786;2023-12-14T09:45:38;47.60;;;28.38;;
26838;SDS011;40088;51.214;6.786;2023-12-14T09:55:42;48.15;;;30.60;;
26838;SDS011;40088;51.214;6.786;2023-12-14T10:05:42;45.75;;;27.05;;
26838;SDS011;40088;51.214;6.786;2023-12-14T10:15:42;33.28;;;23.98;;
26838;SDS011;40088;51.214;6.786;2023-12-14T10:25:46;31.13;;;22.88;;
26838;SDS011;40088;51.214;6.786;2023-12-14T10:35:47;30.73;;;22.23;;
26838;SDS011;40088;51.214;6.786;2023-12-14T10:45:47;25.25;;;21.05;;
26838;SDS011;40088;51.214;6.786;2023-12-14T10:55:48;25.33;;;20.25;;
26838;SDS011;40088;51.214;6.786;2023-12-14T11:05:51;23.63;;;19.52;;
26838;SDS011;40088;51.214;6.786;2023-12-14T11:15:51;24.30;;;18.17;;
26838;SDS011;40088;51.214;6.786;2023-12-14T11:25:52;21.70;;;18.52;;
26838;SDS011;40088;51.214;6.786;2023-12-14T11:35:54;19.83;;;16.53;;
26838;SDS011;40088;51.214;6.786;2023-12-14T11:45:56;21.42;;;15.98;;
26838;SDS011;40088;51.214;6.786;2023-12-14T11:55:57;23.60;;;16.85;;
26838;SDS011;40088;51.214;6.786;2023-12-14T12:16:00;25.00;;;15.60;;
26838;SDS011;40088;51.214;6.786;2023-12-14T12:26:01;22.27;;;14.35;;
26838;SDS011;40088;51.214;6.786;2023-12-14T12:36:01;27.88;;;14.40;;
26838;SDS011;40088;51.214;6.786;2023-12-14T12:46:01;22.52;;;12.23;;
26838;SDS011;40088;51.214;6.786;2023-12-14T12:56:02;17.80;;;11.53;;
26838;SDS011;40088;51.214;6.786;2023-12-14T13:06:03;15.25;;;10.88;;
26838;SDS011;40088;51.214;6.786;2023-12-14T13:16:03;14.73;;;10.07;;
26838;SDS011;40088;51.214;6.786;2023-12-14T13:26:04;14.55;;;10.35;;
26838;SDS011;40088;51.214;6.786;2023-12-14T13:36:04;16.03;;;9.43;;
26838;SDS011;40088;51.214;6.786;2023-12-14T13:46:05;11.50;;;8.15;;
26838;SDS011;40088;51.214;6.786;2023-12-14T13:56:06;13.70;;;8.48;;
26838;SDS011;40088;51.214;6.786;2023-12-14T14:06:06;10.35;;;7.18;;
26838;SDS011;40088;51.214;6.786;2023-12-14T14:16:07;11.93;;;9.07;;
26838;SDS011;40088;51.214;6.786;2023-12-14T14:26:08;12.10;;;7.80;;
26838;SDS011;40088;51.214;6.786;2023-12-14T14:36:08;9.15;;;6.53;;
26838;SDS011;40088;51.214;6.786;2023-12-14T14:46:09;10.45;;;7.18;;
26838;SDS011;40088;51.214;6.786;2023-12-14T14:56:10;7.75;;;6.78;;
26838;SDS011;40088;51.214;6.786;2023-12-14T15:06:10;7.25;;;6.00;;
26838;SDS011;40088;51.214;6.786;2023-12-14T15:16:11;8.98;;;6.13;;
26838;SDS011;40088;51.214;6.786;2023-12-14T15:26:11;7.07;;;6.37;;
26838;SDS011;40088;51.214;6.786;2023-12-14T15:36:12;7.97;;;6.47;;
26838;SDS011;40088;51.214;6.786;2023-12-14T15:46:13;6.75;;;6.03;;
26838;SDS011;40088;51.214;6.786;2023-12-14T15:56:13;7.97;;;6.97;;
26838;SDS011;40088;51.214;6.786;2023-12-14T16:06:14;10.15;;;7.63;;
26838;SDS011;40088;51.214;6.786;2023-12-14T16:16:16;8.73;;;6.30;;
26838;SDS011;40088;51.214;6.786;2023-12-14T16:26:16;8.15;;;6.60;;
26838;SDS011;40088;51.214;6.786;2023-12-14T16:36:16;7.78;;;6.57;;
26838;SDS011;40088;51.214;6.786;2023-12-14T16:46:17;8.03;;;7.23;;
26838;SDS011;40088;51.214;6.786;2023-12-14T16:56:18;8.32;;;7.13;;
26838;SDS011;40088;51.214;6.786;2023-12-14T17:06:19;9.52;;;7.15;;
26838;SDS011;40088;51.214;6.786;2023-12-14T17:16:21;10.35;;;9.00;;
26838;SDS011;40088;51.214;6.786;2023-12-14T17:26:22;10.35;;;8.65;;
26838;SDS011;40088;51.214;6.786;2023-12-14T17:36:23;11.88;;;9.27;;
26838;SDS011;40088;51.214;6.786;2023-12-14T17:46:24;10.38;;;9.27;;
26838;SDS011;40088;51.214;6.786;2023-12-14T17:56:24;9.77;;;8.75;;
26838;SDS011;40088;51.214;6.786;2023-12-14T18:06:24;12.43;;;9.23;;
26838;SDS011;40088;51.214;6.786;2023-12-14T18:16:25;11.05;;;9.38;;
26838;SDS011;40088;51.214;6.786;2023-12-14T18:26:25;11.02;;;9.77;;
26838;SDS011;40088;51.214;6.786;2023-12-14T18:36:25;12.43;;;10.57;;
26838;SDS011;40088;51.214;6.786;2023-12-14T18:46:26;11.60;;;10.20;;
26838;SDS011;40088;51.214;6.786;2023-12-14T18:56:26;12.10;;;10.25;;
26838;SDS011;40088;51.214;6.786;2023-12-14T19:06:26;12.73;;;10.85;;
26838;SDS011;40088;51.214;6.786;2023-12-14T19:16:30;13.98;;;9.80;;
26838;SDS011;40088;51.214;6.786;2023-12-14T19:26:32;13.77;;;11.38;;
26838;SDS011;40088;51.214;6.786;2023-12-14T19:36:32;13.10;;;9.80;;
26838;SDS011;40088;51.214;6.786;2023-12-14T19:46:34;13.63;;;10.07;;
26838;SDS011;40088;51.214;6.786;2023-12-14T19:56:34;11.18;;;9.80;;
26838;SDS011;40088;51.214;6.786;2023-12-14T20:06:34;13.88;;;11.18;;
26838;SDS011;40088;51.214;6.786;2023-12-14T20:16:36;12.63;;;11.05;;
26838;SDS011;40088;51.214;6.786;2023-12-14T20:26:37;13.38;;;11.30;;
26838;SDS011;40088;51.214;6.786;2023-12-14T20:36:37;12.15;;;10.70;;
26838;SDS011;40088;51.214;6.786;2023-12-14T20:46:38;15.85;;;10.77;;
26838;SDS011;40088;51.214;6.786;2023-12-14T20:56:38;11.20;;;9.43;;
26838;SDS011;40088;51.214;6.786;2023-12-14T21:06:38;12.40;;;10.65;;
26838;SDS011;40088;51.214;6.786;2023-12-14T21:16:39;14.13;;;10.10;;
26838;SDS011;40088;51.214;6.786;2023-12-14T21:26:39;13.20;;;10.98;;
26838;SDS011;40088;51.214;6.786;2023-12-14T21:36:46;20.55;;;14.40;;
26838;SDS011;40088;51.214;6.786;2023-12-14T21:46:47;26.65;;;18.13;;
26838;SDS011;40088;51.214;6.786;2023-12-14T21:56:47;27.60;;;18.08;;
26838;SDS011;40088;51.214;6.786;2023-12-14T22:06:47;26.88;;;18.67;;
26838;SDS011;40088;51.214;6.786;2023-12-14T22:16:48;27.17;;;18.95;;
26838;SDS011;40088;51.214;6.786;2023-12-14T22:26:50;29.73;;;19.48;;
26838;SDS011;40088;51.214;6.786;2023-12-14T22:36:50;25.83;;;18.48;;
26838;SDS011;40088;51.214;6.786;2023-12-14T22:46:51;29.20;;;18.77;;
26838;SDS011;40088;51.214;6.786;2023-12-14T22:56:51;25.10;;;17.63;;
26838;SDS011;40088;51.214;6.786;2023-12-14T23:06:53;23.55;;;16.80;;
26838;SDS011;40088;51.214;6.786;2023-12-14T23:16:54;23.55;;;16.05;;
26838;SDS011;40088;51.214;6.786;2023-12-14T23:26:55;18.88;;;15.02;;
26838;SDS011;40088;51.214;6.786;2023-12-14T23:36:55;19.30;;;15.07;;
26838;SDS011;40088;51.214;6.786;2023-12-14T23:46:56;20.45;;;16.10;;
26838;SDS011;40088;51.214;6.786;2023-12-14T23:56:56;17.63;;;13.55;;
